Time;durP1;ratioP1;P1;durP2;ratioP2;P2;SDS_P1;SDS_P2;PMS_P1;PMS_P2;Temp;Humidity;BMP_temperature;BMP_pressure;BME280_temperature;BME280_humidity;BME280_pressure;Samples;Min_cycle;Max_cycle;Signal;HPM_P1;HPM_P2
2021/10/17 00:05:39;;;;;;;11.95;4.83;;;;;;;8.51;100.00;100716.31;713560;1206;114330;-71
2021/10/17 00:20:41;;;;;;;14.20;5.45;;;;;;;8.53;100.00;100710.02;715136;1177;115273;-73
2021/10/17 00:35:43;;;;;;;12.03;4.97;;;;;;;8.49;100.00;100695.51;713780;1203;115254;-72
2021/10/17 00:50:48;;;;;;;17.73;5.37;;;;;;;8.51;100.00;100690.98;713261;1182;114452;-73
2021/10/17 01:05:52;;;;;;;9.45;4.30;;;;;;;8.54;100.00;100689.92;713697;1203;116220;-72
2021/10/17 01:20:54;;;;;;;9.53;4.30;;;;;;;8.55;100.00;100686.38;713612;1203;114146;-72
2021/10/17 01:35:57;;;;;;;17.20;4.90;;;;;;;8.60;100.00;100685.08;713351;1203;114283;-74
2021/10/17 01:51:02;;;;;;;5.43;3.53;;;;;;;8.56;100.00;100670.56;713679;1203;114157;-73
2021/10/17 02:06:04;;;;;;;8.90;4.00;;;;;;;8.48;100.00;100665.89;712980;1203;114726;-73
2021/10/17 02:21:07;;;;;;;9.28;4.15;;;;;;;8.49;100.00;100667.56;712883;1207;114016;-73
2021/10/17 02:36:09;;;;;;;10.93;4.58;;;;;;;8.47;100.00;100663.39;712894;1203;113780;-74
2021/10/17 02:51:13;;;;;;;15.18;5.00;;;;;;;8.48;100.00;100644.97;713112;1203;114270;-73
2021/10/17 03:06:15;;;;;;;10.33;4.95;;;;;;;8.50;100.00;100647.50;713070;1203;114368;-73
2021/10/17 03:21:18;;;;;;;8.25;4.30;;;;;;;8.51;100.00;100649.14;712584;1203;115628;-73
2021/10/17 03:36:21;;;;;;;12.78;4.85;;;;;;;8.51;100.00;100637.87;713171;1203;113835;-74
2021/10/17 03:51:23;;;;;;;11.70;4.80;;;;;;;8.57;100.00;100640.03;712863;1208;114436;-74
2021/10/17 04:06:25;;;;;;;11.85;5.25;;;;;;;8.58;100.00;100634.69;713236;1181;114352;-74
2021/10/17 04:21:27;;;;;;;10.80;4.55;;;;;;;8.66;100.00;100624.48;712830;1203;114939;-72
2021/10/17 04:36:31;;;;;;;10.50;4.50;;;;;;;8.70;100.00;100627.71;712955;1203;114773;-74
2021/10/17 04:51:34;;;;;;;13.50;4.80;;;;;;;8.70;100.00;100630.33;713070;1203;114486;-73
2021/10/17 05:06:36;;;;;;;8.08;3.90;;;;;;;8.74;100.00;100634.38;713313;1208;115192;-71
2021/10/17 05:21:38;;;;;;;8.97;4.80;;;;;;;8.80;100.00;100618.23;713018;1208;114290;-74
2021/10/17 05:36:40;;;;;;;12.07;5.00;;;;;;;8.80;100.00;100628.70;712993;1203;114136;-72
2021/10/17 05:51:43;;;;;;;12.73;4.95;;;;;;;8.91;100.00;100637.52;713553;1203;114037;-73
2021/10/17 06:06:45;;;;;;;10.17;4.53;;;;;;;8.99;100.00;100663.94;713161;1180;114012;-73
2021/10/17 06:21:47;;;;;;;40.75;14.90;;;;;;;9.18;100.00;100673.83;713544;1180;114099;-85
2021/10/17 06:36:49;;;;;;;16.93;7.98;;;;;;;9.26;100.00;100687.16;713568;1203;114492;-86
2021/10/17 06:51:52;;;;;;;18.60;10.65;;;;;;;9.38;100.00;100701.11;713510;1203;114860;-71
2021/10/17 07:06:54;;;;;;;24.53;13.38;;;;;;;9.52;100.00;100702.67;713296;1203;115133;-80
2021/10/17 07:21:56;;;;;;;17.65;10.30;;;;;;;9.64;100.00;100703.52;713276;1188;115783;-74
2021/10/17 07:36:58;;;;;;;10.45;6.05;;;;;;;9.82;100.00;100712.56;713103;1180;114189;-76
2021/10/17 07:52:02;;;;;;;8.50;5.35;;;;;;;9.99;100.00;100713.05;713467;1181;114130;-76
2021/10/17 08:07:05;;;;;;;14.43;4.88;;;;;;;10.33;99.32;100702.47;713285;1177;113744;-82
2021/10/17 08:22:08;;;;;;;8.90;5.08;;;;;;;10.59;96.83;100708.26;713625;1203;114230;-81
2021/10/17 08:37:11;;;;;;;14.47;4.53;;;;;;;10.78;92.67;100697.11;713804;1203;114417;-80
2021/10/17 08:52:13;;;;;;;13.65;8.28;;;;;;;11.29;89.05;100705.17;713664;1203;115726;-80
2021/10/17 09:07:21;;;;;;;10.78;6.13;;;;;;;11.24;85.73;100717.85;713601;1203;114516;-83
2021/10/17 09:22:30;;;;;;;10.80;5.93;;;;;;;11.66;83.84;100713.36;713532;1180;114207;-81
2021/10/17 09:37:41;;;;;;;12.68;4.05;;;;;;;11.71;81.34;100714.78;713711;1203;114774;-75
2021/10/17 09:53:00;;;;;;;11.93;5.30;;;;;;;11.95;77.93;100711.84;714265;1203;115636;-74
2021/10/17 10:08:03;;;;;;;;;;;;;;;12.35;73.39;100708.32;715257;1203;114103;-80
2021/10/17 10:23:12;;;;;;;10.65;3.95;;;;;;;12.59;73.53;100704.47;717228;1203;101152;-81
2021/10/17 10:38:14;;;;;;;9.55;3.80;;;;;;;13.21;71.62;100688.33;713346;1203;115391;-81
2021/10/17 10:53:48;;;;;;;6.77;3.60;;;;;;;13.53;70.35;100687.17;712980;1203;114776;-83
2021/10/17 11:09:24;;;;;;;10.05;4.70;;;;;;;13.15;70.59;100684.47;712868;1208;114542;-81
2021/10/17 11:24:31;;;;;;;11.57;4.57;;;;;;;13.20;68.25;100678.79;712317;1203;114227;-81
2021/10/17 11:40:08;;;;;;;7.83;4.77;;;;;;;13.59;66.89;100676.88;713033;1205;115658;-84
2021/10/17 11:55:10;;;;;;;9.93;3.00;;;;;;;13.07;66.18;100673.82;712749;1203;113991;-80
2021/10/17 12:10:14;;;;;;;5.05;2.95;;;;;;;12.84;67.10;100660.13;713145;1203;114228;-81
2021/10/17 12:25:18;;;;;;;7.60;3.98;;;;;;;12.83;66.90;100638.25;712734;1203;115133;-80
2021/10/17 12:40:21;;;;;;;6.65;3.75;;;;;;;13.63;66.44;100624.67;713217;1209;113873;-82
2021/10/17 12:55:29;;;;;;;13.05;4.38;;;;;;;14.10;65.64;100619.25;712990;1197;114306;-81
2021/10/17 13:10:31;;;;;;;7.90;3.27;;;;;;;13.86;65.13;100609.29;713102;1181;114601;-81
2021/10/17 13:25:39;;;;;;;6.43;2.70;;;;;;;13.55;64.31;100606.95;713016;1203;114059;-81
2021/10/17 13:40:42;;;;;;;9.35;4.25;;;;;;;12.89;64.22;100597.34;712865;1203;114935;-82
2021/10/17 13:55:44;;;;;;;8.15;3.10;;;;;;;12.55;65.58;100596.04;713065;1203;115711;-82
2021/10/17 14:10:47;;;;;;;6.20;2.97;;;;;;;12.31;65.71;100597.30;712860;1205;115078;-80
2021/10/17 14:25:50;;;;;;;4.60;2.30;;;;;;;12.11;66.48;100600.88;712973;1203;113861;-81
2021/10/17 14:40:52;;;;;;;12.28;3.80;;;;;;;11.89;67.36;100602.78;713028;1205;114180;-80
2021/10/17 14:55:54;;;;;;;14.98;6.83;;;;;;;11.77;68.86;100604.70;713159;1205;114539;-81
2021/10/17 15:10:57;;;;;;;29.98;16.43;;;;;;;11.60;70.67;100623.72;712583;1208;114670;-80
2021/10/17 15:25:59;;;;;;;28.05;11.75;;;;;;;11.36;73.00;100616.17;713059;1206;115729;-82
2021/10/17 15:41:02;;;;;;;25.75;10.98;;;;;;;11.08;74.53;100619.36;713092;1208;114482;-81
2021/10/17 15:56:05;;;;;;;20.55;9.30;;;;;;;10.77;76.81;100610.64;712935;1209;115186;-81
2021/10/17 16:11:10;;;;;;;29.10;11.80;;;;;;;10.47;78.64;100604.34;713353;1180;115211;-81
2021/10/17 16:26:12;;;;;;;33.80;17.45;;;;;;;10.29;80.00;100623.23;713207;1180;114209;-79
2021/10/17 16:41:15;;;;;;;29.45;13.20;;;;;;;10.16;81.15;100631.26;713780;1179;114351;-81
2021/10/17 16:56:18;;;;;;;161.40;75.97;;;;;;;9.90;82.50;100638.59;713207;1180;114247;-79
2021/10/17 17:11:21;;;;;;;79.50;45.75;;;;;;;9.85;83.65;100638.13;712942;1203;114282;-80
2021/10/17 17:26:24;;;;;;;28.47;15.70;;;;;;;9.81;84.38;100629.66;714967;1179;114061;-79
2021/10/17 17:41:27;;;;;;;22.98;11.18;;;;;;;9.73;85.10;100623.38;714633;1208;114058;-75
2021/10/17 17:56:30;;;;;;;20.15;9.33;;;;;;;9.60;85.02;100631.37;713915;1181;114702;-73
2021/10/17 18:11:33;;;;;;;20.75;10.23;;;;;;;9.50;86.91;100641.71;715319;1203;114100;-72
2021/10/17 18:26:36;;;;;;;23.27;11.00;;;;;;;9.33;86.72;100646.48;713053;1205;115574;-74
2021/10/17 18:41:38;;;;;;;18.60;9.93;;;;;;;9.33;87.59;100645.67;713325;1208;114862;-71
2021/10/17 18:56:41;;;;;;;21.47;9.53;;;;;;;9.32;88.03;100636.14;713768;1205;115636;-79
2021/10/17 19:11:43;;;;;;;19.10;9.80;;;;;;;9.25;88.48;100622.69;713456;1206;113857;-72
2021/10/17 19:26:47;;;;;;;17.45;9.60;;;;;;;9.25;89.37;100637.55;712920;1208;113623;-73
2021/10/17 19:41:49;;;;;;;14.67;8.63;;;;;;;9.04;90.08;100640.88;713089;1205;114667;-72
2021/10/17 19:56:52;;;;;;;23.48;12.10;;;;;;;8.96;91.56;100643.21;712948;1205;114483;-72
2021/10/17 20:11:55;;;;;;;21.68;10.90;;;;;;;8.90;93.18;100659.39;717812;1203;115655;-74
2021/10/17 20:26:58;;;;;;;19.30;10.67;;;;;;;8.71;93.30;100652.08;713710;1179;115004;-73
2021/10/17 20:42:09;;;;;;;20.10;9.10;;;;;;;8.64;95.14;100654.31;713730;1182;114129;-74
2021/10/17 20:57:13;;;;;;;18.70;9.93;;;;;;;8.48;95.60;100650.20;713246;1203;115377;-73
2021/10/17 21:12:18;;;;;;;19.80;9.77;;;;;;;8.34;96.23;100655.61;715764;1181;114605;-73
2021/10/17 21:27:20;;;;;;;20.60;10.40;;;;;;;8.21;97.61;100680.94;714096;1203;114406;-74
2021/10/17 21:42:22;;;;;;;25.40;12.70;;;;;;;8.20;99.49;100672.27;713796;1206;114832;-73
2021/10/17 21:57:25;;;;;;;20.73;10.60;;;;;;;8.31;99.30;100663.65;713863;1208;114784;-75
2021/10/17 22:12:27;;;;;;;23.87;12.33;;;;;;;8.35;99.80;100659.86;713636;1178;114547;-74
2021/10/17 22:27:29;;;;;;;22.53;10.35;;;;;;;8.41;100.00;100669.88;712714;1203;114774;-73
2021/10/17 22:42:31;;;;;;;18.07;9.83;;;;;;;8.49;100.00;100682.44;713180;1181;114577;-73
2021/10/17 22:57:35;;;;;;;19.53;9.80;;;;;;;8.52;100.00;100686.61;712936;1191;114036;-73
2021/10/17 23:12:38;;;;;;;21.57;11.53;;;;;;;8.59;100.00;100703.50;712747;1205;115777;-74
2021/10/17 23:27:40;;;;;;;28.15;12.28;;;;;;;8.59;100.00;100714.81;713053;1180;114624;-73
2021/10/17 23:42:43;;;;;;;17.93;7.90;;;;;;;8.37;100.00;100725.95;712620;1203;114340;-75
2021/10/17 23:57:45;;;;;;;30.55;13.05;;;;;;;8.18;100.00;100723.80;712529;1180;115403;-72
